White Sands National Monumen, New Mexico
Current Conditions -  °F | °C
As of 6:58 AM on Monday 20 Oct 2014 (Local Time) from KHMN Reporting Station
Few Clouds Few Clouds  
Wind Chill: 54°   Ceiling: Unl
Heat Index: 54°   Visibility: 10mi
Dew Point: 54°   Wind: 6mph
Humidity: 100%   Direction: 300°WNW
Pressure: 30.08"   Gusts: NA
Location:  32.7929°N, 106.161°W
Report Text: KHMN 201258Z AUTO 30005KT 10SM FEW100 12/12 A3008 RMK AO2 SLP139 T01230123 $
Loading
Personal Weather Stations






























Interactive Weather Map
Tropical Storm Tracking
New forecast layout! Learn more

10-Day Weather Forecast

Advertisements
Track Severe Weather on mobile